Time;durP1;ratioP1;P1;durP2;ratioP2;P2;SDS_P1;SDS_P2;PMS_P1;PMS_P2;Temp;Humidity;BMP_temperature;BMP_pressure;BME280_temperature;BME280_humidity;BME280_pressure;Samples;Min_cycle;Max_cycle;Signal;HPM_P1;HPM_P2
2021/06/29 00:01:33;;;;;;;8.95;3.95;;;;;;;25.23;50.78;99938.63;5094770;28;20436;-74
2021/06/29 00:04:04;;;;;;;9.77;4.28;;;;;;;25.16;50.63;99935.81;5095149;28;20046;-73
2021/06/29 00:06:33;;;;;;;8.38;4.88;;;;;;;25.34;50.13;99944.41;5094274;28;20071;-73
2021/06/29 00:09:01;;;;;;;8.18;4.65;;;;;;;25.22;50.08;99936.94;5094710;28;20044;-74
2021/06/29 00:11:50;;;;;;;8.40;4.65;;;;;;;24.99;50.30;99929.72;5094846;28;20058;-75
2021/06/29 00:14:19;;;;;;;7.20;4.78;;;;;;;25.02;49.96;99929.38;5094406;28;20044;-74
2021/06/29 00:16:51;;;;;;;8.90;6.03;;;;;;;25.06;49.85;99930.69;5094908;28;20048;-74
2021/06/29 00:19:19;;;;;;;9.95;6.20;;;;;;;25.05;49.87;99931.72;5094441;28;20050;-74
2021/06/29 00:21:50;;;;;;;9.00;6.70;;;;;;;24.92;50.13;99934.28;5094801;28;20119;-73
2021/06/29 00:24:19;;;;;;;12.65;7.88;;;;;;;24.76;50.61;99929.91;5094099;28;20052;-74
2021/06/29 00:26:49;;;;;;;8.88;6.60;;;;;;;24.71;51.03;99937.81;5094743;28;20040;-73
2021/06/29 00:29:17;;;;;;;7.72;5.72;;;;;;;24.79;50.73;99931.38;5094115;28;20052;-75
2021/06/29 00:31:46;;;;;;;8.50;5.95;;;;;;;24.82;50.69;99928.28;5076579;28;20048;-74
2021/06/29 00:34:15;;;;;;;10.27;6.90;;;;;;;24.90;50.58;99935.50;5076164;28;20064;-74
2021/06/29 00:36:45;;;;;;;9.23;6.82;;;;;;;24.81;50.97;99942.97;5094517;28;20070;-74
2021/06/29 00:39:13;;;;;;;10.60;6.60;;;;;;;24.62;51.46;99932.66;5076010;28;20052;-74
2021/06/29 00:41:41;;;;;;;9.52;6.57;;;;;;;24.61;51.42;99931.81;5093925;28;20127;-74
2021/06/29 00:44:19;;;;;;;9.20;6.60;;;;;;;24.65;51.48;99935.00;5093889;28;20047;-73
2021/06/29 00:46:48;;;;;;;8.50;5.60;;;;;;;24.58;51.77;99925.88;5093869;28;20101;-74
2021/06/29 00:49:18;;;;;;;8.18;4.60;;;;;;;24.65;51.73;99926.81;5093949;28;20044;-74
2021/06/29 00:51:47;;;;;;;6.85;4.05;;;;;;;24.68;51.33;99938.19;5093448;28;20052;-74
2021/06/29 00:54:16;;;;;;;4.40;3.60;;;;;;;24.62;51.68;99929.94;5093986;28;20043;-74
2021/06/29 00:56:45;;;;;;;7.10;3.63;;;;;;;24.30;52.90;99934.72;5093812;28;20036;-74
2021/06/29 00:59:13;;;;;;;6.07;3.60;;;;;;;24.29;52.59;99933.03;5094036;28;20044;-74
2021/06/29 01:01:44;;;;;;;7.65;3.70;;;;;;;24.28;52.71;99926.72;5094014;28;20402;-74
2021/06/29 01:04:13;;;;;;;6.97;3.47;;;;;;;24.24;52.56;99930.03;5075974;28;20440;-73
2021/06/29 01:06:45;;;;;;;6.75;3.65;;;;;;;24.24;52.42;99919.97;5093031;28;20059;-74
2021/06/29 01:09:13;;;;;;;5.47;3.55;;;;;;;24.29;52.20;99919.41;5093395;28;20101;-73
2021/06/29 01:11:42;;;;;;;7.15;3.58;;;;;;;24.12;53.11;99915.16;5093431;28;20051;-74
2021/06/29 01:14:11;;;;;;;6.50;3.70;;;;;;;24.16;53.24;99919.22;5093427;28;20429;-73
2021/06/29 01:16:40;;;;;;;6.88;3.65;;;;;;;24.19;53.08;99910.66;5093246;28;20047;-73
2021/06/29 01:19:10;;;;;;;7.43;3.63;;;;;;;23.87;53.76;99910.00;5093661;28;20071;-74
2021/06/29 01:21:41;;;;;;;5.90;3.40;;;;;;;23.83;54.17;99911.38;5075106;28;20056;-74
2021/06/29 01:24:12;;;;;;;6.68;3.83;;;;;;;23.85;54.77;99911.22;5093394;28;20051;-74
2021/06/29 01:26:45;;;;;;;5.95;3.50;;;;;;;24.02;54.48;99912.72;5092890;28;20174;-73
2021/06/29 01:29:13;;;;;;;5.85;3.50;;;;;;;24.04;53.66;99907.97;5093486;28;20040;-74
2021/06/29 01:31:40;;;;;;;5.85;3.42;;;;;;;24.06;53.97;99905.88;5092992;28;20445;-74
2021/06/29 01:34:09;;;;;;;5.15;3.65;;;;;;;24.03;54.17;99913.56;5093158;28;20083;-74
2021/06/29 01:36:38;;;;;;;5.72;4.03;;;;;;;24.05;55.22;99914.25;5093319;28;20161;-74
2021/06/29 01:39:09;;;;;;;6.53;4.68;;;;;;;24.13;56.00;99906.00;5093172;28;20097;-74
2021/06/29 01:41:38;;;;;;;8.25;4.50;;;;;;;23.89;56.79;99902.50;5092999;28;20062;-74
2021/06/29 01:44:09;;;;;;;7.88;4.53;;;;;;;23.72;57.79;99903.69;5075043;28;20044;-75
2021/06/29 01:46:40;;;;;;;7.22;4.57;;;;;;;23.47;58.74;99900.34;5092622;28;20050;-75
2021/06/29 01:49:08;;;;;;;7.18;4.68;;;;;;;23.28;59.31;99901.69;5093310;28;20127;-75
2021/06/29 01:51:36;;;;;;;7.53;4.82;;;;;;;23.13;59.15;99900.78;5092822;28;20043;-73
2021/06/29 01:54:06;;;;;;;8.35;4.82;;;;;;;22.86;60.23;99910.31;5093073;28;20089;-74
2021/06/29 01:56:37;;;;;;;10.45;5.40;;;;;;;22.94;60.17;99909.41;5092534;28;20075;-74
2021/06/29 01:59:10;;;;;;;8.68;5.28;;;;;;;22.95;60.30;99905.66;5093010;28;20044;-74
2021/06/29 02:01:39;;;;;;;10.40;5.40;;;;;;;22.80;60.16;99914.56;5092579;28;20367;-74
2021/06/29 02:04:07;;;;;;;10.35;5.32;;;;;;;22.97;59.99;99909.03;5097758;28;20055;-73
2021/06/29 02:06:36;;;;;;;7.30;4.53;;;;;;;22.71;60.61;99912.94;5099008;28;20047;-73
2021/06/29 02:09:09;;;;;;;6.75;4.60;;;;;;;22.71;60.57;99914.78;5099614;28;20065;-75
2021/06/29 02:11:38;;;;;;;7.63;4.57;;;;;;;22.88;59.70;99927.31;5059022;28;20040;-76
2021/06/29 02:14:07;;;;;;;7.25;4.72;;;;;;;22.81;60.66;99924.41;5059414;28;20467;-76
2021/06/29 02:16:36;;;;;;;7.10;4.50;;;;;;;22.82;60.70;99923.38;5059147;28;20064;-76
2021/06/29 02:19:09;;;;;;;9.13;5.40;;;;;;;22.72;61.16;99921.94;5059225;28;20144;-76
2021/06/29 02:21:37;;;;;;;9.57;5.28;;;;;;;22.62;61.18;99929.47;5058970;28;20052;-71
2021/06/29 02:24:08;;;;;;;8.75;4.57;;;;;;;22.56;60.90;99928.28;5059156;28;20041;-71
2021/06/29 02:26:39;;;;;;;6.07;4.55;;;;;;;22.63;60.78;99923.00;5059032;28;20051;-71
2021/06/29 02:29:08;;;;;;;8.40;4.43;;;;;;;22.70;60.28;99924.81;5058497;28;20060;-70
2021/06/29 02:31:36;;;;;;;13.00;4.93;;;;;;;22.61;60.89;99934.03;5058786;28;20037;-70
2021/06/29 02:34:04;;;;;;;11.20;4.80;;;;;;;22.45;61.81;99932.25;5059469;28;20044;-70
2021/06/29 02:36:33;;;;;;;11.38;4.88;;;;;;;22.43;61.91;99933.44;5058713;28;20483;-71
2021/06/29 02:39:01;;;;;;;9.38;4.53;;;;;;;22.58;61.65;99934.38;5058348;28;20462;-70
2021/06/29 02:41:33;;;;;;;7.07;4.78;;;;;;;22.67;61.38;99927.03;5059052;28;20044;-71
2021/06/29 02:44:02;;;;;;;;;;;;;;;22.90;61.20;99927.13;5059892;28;20132;-71
2021/06/29 02:46:31;;;;;;;7.55;4.82;;;;;;;22.83;61.64;99927.78;5058657;28;19974;-71
2021/06/29 02:48:59;;;;;;;8.07;4.93;;;;;;;22.84;61.42;99926.81;5058955;28;20072;-71
2021/06/29 02:51:27;;;;;;;7.00;4.70;;;;;;;22.80;61.92;99928.16;5058554;28;20045;-71
2021/06/29 02:53:56;;;;;;;6.75;4.70;;;;;;;22.51;62.67;99926.09;5058948;28;20127;-71
2021/06/29 02:56:39;;;;;;;7.93;4.72;;;;;;;22.42;63.22;99935.31;5058792;28;20087;-71
2021/06/29 02:59:11;;;;;;;8.82;5.05;;;;;;;22.50;63.19;99934.44;5059151;28;20037;-72
2021/06/29 03:01:40;;;;;;;8.75;5.07;;;;;;;22.43;64.08;99937.00;5057288;28;20049;-73
2021/06/29 03:04:09;;;;;;;8.55;4.82;;;;;;;22.47;64.08;99934.78;5058982;28;20096;-73
2021/06/29 03:06:40;;;;;;;10.23;5.63;;;;;;;22.29;64.58;99926.88;5058314;28;20037;-73
2021/06/29 03:09:12;;;;;;;7.80;5.53;;;;;;;22.42;64.27;99931.75;5059498;28;20465;-74
2021/06/29 03:11:40;;;;;;;10.85;5.68;;;;;;;22.40;64.50;99940.09;5098686;28;20119;-72
2021/06/29 03:14:10;;;;;;;9.23;5.60;;;;;;;22.58;63.95;99931.66;5098108;28;20043;-72
2021/06/29 03:16:39;;;;;;;9.20;5.28;;;;;;;22.51;63.91;99936.13;5095109;28;20139;-72
2021/06/29 03:19:07;;;;;;;10.65;4.95;;;;;;;22.65;63.22;99927.22;5095857;28;20048;-73
2021/06/29 03:21:36;;;;;;;8.70;5.47;;;;;;;22.75;62.99;99924.28;5095405;28;20048;-73
2021/06/29 03:24:06;;;;;;;8.85;5.50;;;;;;;22.94;62.99;99929.28;5095695;28;20042;-73
2021/06/29 03:26:35;;;;;;;9.68;5.72;;;;;;;22.90;63.09;99933.41;5095250;28;20067;-72
2021/06/29 03:29:04;;;;;;;9.55;5.93;;;;;;;22.53;64.34;99934.09;5095431;28;20346;-71
2021/06/29 03:31:34;;;;;;;12.00;5.75;;;;;;;22.52;64.43;99930.53;5095268;28;20040;-72
2021/06/29 03:34:02;;;;;;;9.32;5.90;;;;;;;22.72;63.81;99922.78;5095451;28;20512;-72
2021/06/29 03:36:31;;;;;;;11.32;6.18;;;;;;;22.91;63.09;99923.38;5076786;28;20075;-71
2021/06/29 03:38:59;;;;;;;10.35;6.00;;;;;;;23.33;61.95;99922.88;5095374;28;20044;-73
2021/06/29 03:41:28;;;;;;;9.98;5.75;;;;;;;23.96;60.04;99921.66;5094926;28;20032;-77
2021/06/29 03:43:56;;;;;;;9.43;5.90;;;;;;;25.02;56.63;99923.94;5095127;28;20444;-71
2021/06/29 03:46:25;;;;;;;7.85;5.82;;;;;;;25.84;53.70;99914.38;5095299;28;20095;-72
2021/06/29 03:48:55;;;;;;;10.70;5.93;;;;;;;26.37;52.70;99929.28;5095401;28;20044;-72
2021/06/29 03:51:25;;;;;;;7.95;5.70;;;;;;;27.16;50.36;99925.16;5095276;28;20119;-73
2021/06/29 03:53:54;;;;;;;11.05;5.50;;;;;;;27.28;49.99;99926.22;5076829;28;20055;-73
2021/06/29 03:56:27;;;;;;;9.77;5.32;;;;;;;27.70;48.49;99925.03;5095164;28;20127;-74
2021/06/29 03:58:57;;;;;;;8.57;5.50;;;;;;;27.91;48.19;99922.06;5095538;28;20059;-74
2021/06/29 04:01:27;;;;;;;8.18;5.10;;;;;;;27.25;49.65;99922.00;5095157;28;20544;-73
2021/06/29 04:03:57;;;;;;;7.28;5.03;;;;;;;26.11;52.64;99927.19;5094743;28;20047;-73
2021/06/29 04:06:27;;;;;;;9.45;5.10;;;;;;;26.06;53.11;99926.13;5094543;28;20061;-71
2021/06/29 04:08:57;;;;;;;6.70;4.70;;;;;;;26.44;51.62;99932.00;5094921;28;20133;-70
2021/06/29 04:11:26;;;;;;;10.48;4.93;;;;;;;27.59;49.16;99929.19;5094408;28;20101;-70
2021/06/29 04:13:56;;;;;;;8.85;5.00;;;;;;;28.40;46.73;99930.84;5094268;28;20085;-72
2021/06/29 04:16:25;;;;;;;10.68;5.20;;;;;;;28.62;45.74;99928.63;5094630;28;20048;-72
2021/06/29 04:18:53;;;;;;;7.97;4.82;;;;;;;29.22;44.27;99932.78;5094268;28;20044;-72
2021/06/29 04:21:26;;;;;;;7.32;4.47;;;;;;;29.97;42.24;99930.09;5094589;28;20044;-72
2021/06/29 04:23:54;;;;;;;9.50;4.80;;;;;;;29.92;42.25;99927.19;5094235;28;20048;-73
2021/06/29 04:26:23;;;;;;;8.73;5.22;;;;;;;30.19;41.50;99925.84;5093401;28;20502;-72
2021/06/29 04:28:51;;;;;;;7.53;4.50;;;;;;;30.18;41.47;99926.09;5094182;28;20475;-72
2021/06/29 04:31:19;;;;;;;7.47;5.03;;;;;;;30.39;41.56;99931.13;5094414;28;20044;-71
2021/06/29 04:33:51;;;;;;;9.73;5.50;;;;;;;30.34;40.85;99927.41;5094026;28;20147;-71
2021/06/29 04:36:19;;;;;;;9.38;4.95;;;;;;;30.57;40.72;99938.56;5093975;28;20060;-72
2021/06/29 04:38:49;;;;;;;10.18;5.50;;;;;;;29.93;41.92;99942.63;5094026;28;20044;-71
2021/06/29 04:41:18;;;;;;;9.18;5.00;;;;;;;29.18;43.59;99944.44;5094243;28;20127;-72
2021/06/29 04:43:47;;;;;;;10.20;5.10;;;;;;;29.27;43.44;99941.19;5093929;28;20127;-72
2021/06/29 04:46:15;;;;;;;8.75;5.50;;;;;;;29.15;44.15;99939.41;5094277;28;20119;-71
2021/06/29 04:48:44;;;;;;;10.52;5.28;;;;;;;29.31;43.67;99939.69;5075204;28;20437;-71
2021/06/29 04:51:12;;;;;;;10.55;5.78;;;;;;;29.27;43.98;99938.47;5093862;28;20502;-71
2021/06/29 04:53:41;;;;;;;6.43;4.95;;;;;;;29.90;41.90;99932.06;5093336;28;20078;-71
2021/06/29 04:56:17;;;;;;;10.25;5.15;;;;;;;30.20;41.40;99926.69;5093557;28;20047;-71
2021/06/29 04:58:48;;;;;;;8.38;5.13;;;;;;;30.19;41.46;99927.78;5093454;28;20048;-70
2021/06/29 05:01:17;;;;;;;7.30;4.93;;;;;;;31.36;39.22;99924.81;5094086;28;20043;-71
2021/06/29 05:03:46;;;;;;;10.63;4.82;;;;;;;31.51;38.95;99927.97;5093534;28;20036;-73
2021/06/29 05:06:15;;;;;;;9.77;5.05;;;;;;;31.86;38.04;99920.63;5093210;28;20127;-70
2021/06/29 05:08:47;;;;;;;8.48;5.03;;;;;;;31.70;38.74;99915.78;5093083;28;20048;-73
2021/06/29 05:11:16;;;;;;;8.35;5.03;;;;;;;32.43;36.32;99918.09;5075278;28;20055;-73
2021/06/29 05:13:50;;;;;;;11.38;5.13;;;;;;;32.36;36.55;99914.63;5093103;28;20506;-71
2021/06/29 05:16:19;;;;;;;11.98;4.97;;;;;;;32.13;37.30;99922.88;5093837;28;20489;-72
2021/06/29 05:18:47;;;;;;;8.63;5.35;;;;;;;32.49;36.51;99920.94;5093083;28;20441;-73
2021/06/29 05:21:18;;;;;;;13.68;5.25;;;;;;;31.75;37.30;99912.28;5093413;28;20047;-72
2021/06/29 05:23:46;;;;;;;8.05;5.28;;;;;;;31.54;37.77;99916.47;5093270;28;20139;-71
2021/06/29 05:26:16;;;;;;;10.50;5.03;;;;;;;32.16;36.65;99914.13;5093314;28;20044;-70
2021/06/29 05:28:44;;;;;;;12.73;5.13;;;;;;;32.65;35.90;99917.44;5092694;28;20044;-71
2021/06/29 05:31:13;;;;;;;7.75;5.28;;;;;;;32.20;36.50;99912.56;5093237;28;20050;-76
2021/06/29 05:33:42;;;;;;;6.80;4.72;;;;;;;31.99;37.44;99918.69;5093061;28;20554;-74
2021/06/29 05:36:15;;;;;;;7.40;4.88;;;;;;;33.14;35.16;99926.16;5092983;28;20054;-74
2021/06/29 05:38:43;;;;;;;6.97;4.70;;;;;;;34.02;34.07;99917.19;5092844;28;20040;-74
2021/06/29 05:41:11;;;;;;;8.30;4.72;;;;;;;33.87;34.19;99927.97;5092971;28;20048;-71
2021/06/29 05:43:41;;;;;;;10.20;5.55;;;;;;;34.59;33.19;99927.97;5092775;28;20056;-72
2021/06/29 05:46:09;;;;;;;9.90;5.05;;;;;;;35.31;31.64;99926.84;5092916;28;20075;-71
2021/06/29 05:48:38;;;;;;;8.93;4.25;;;;;;;34.87;31.84;99917.78;5092811;28;20040;-74
2021/06/29 05:51:07;;;;;;;8.65;4.95;;;;;;;35.50;31.17;99910.69;5093166;28;20127;-72
2021/06/29 05:53:37;;;;;;;7.72;4.63;;;;;;;34.67;31.61;99913.66;5092806;28;20040;-78
2021/06/29 05:56:06;;;;;;;7.20;4.82;;;;;;;33.91;32.61;99912.59;5092856;28;20472;-77
2021/06/29 05:58:35;;;;;;;7.78;5.13;;;;;;;32.95;34.69;99922.75;5092988;28;20044;-77
2021/06/29 06:01:07;;;;;;;8.57;4.47;;;;;;;32.72;35.15;99920.91;5092734;28;20036;-72
2021/06/29 06:03:44;;;;;;;12.23;5.03;;;;;;;33.05;34.78;99922.09;5092739;28;20044;-76
2021/06/29 06:06:12;;;;;;;9.23;4.88;;;;;;;32.72;35.17;99912.63;5092654;28;20048;-76
2021/06/29 06:08:41;;;;;;;8.18;5.07;;;;;;;32.66;35.24;99924.63;5092274;28;20083;-76
2021/06/29 06:11:10;;;;;;;9.40;5.00;;;;;;;32.88;35.35;99925.66;5092904;28;20048;-76
2021/06/29 06:13:38;;;;;;;7.10;4.45;;;;;;;33.28;34.25;99919.22;5092402;28;20055;-76
2021/06/29 06:16:10;;;;;;;9.45;4.97;;;;;;;34.09;32.68;99926.16;5092517;28;20494;-69
2021/06/29 06:18:42;;;;;;;6.53;4.80;;;;;;;34.61;31.78;99931.31;5092834;28;20040;-70
2021/06/29 06:21:13;;;;;;;8.68;4.53;;;;;;;34.68;32.36;99926.41;5092763;28;20040;-68
2021/06/29 06:23:41;;;;;;;7.97;4.80;;;;;;;34.63;32.18;99923.56;5092649;28;20230;-70
2021/06/29 06:26:10;;;;;;;8.00;4.82;;;;;;;35.12;31.17;99931.91;5092887;28;20048;-70
2021/06/29 06:28:39;;;;;;;6.20;4.15;;;;;;;35.10;31.04;99934.13;5092266;28;20039;-70
2021/06/29 06:31:09;;;;;;;7.70;4.57;;;;;;;34.69;32.16;99928.09;5092652;28;20122;-73
2021/06/29 06:33:37;;;;;;;7.90;4.45;;;;;;;35.57;30.11;99927.94;5092493;28;20215;-80
2021/06/29 06:36:10;;;;;;;;;;;;;;;35.30;30.49;99933.50;5092970;28;20036;-80
2021/06/29 06:38:39;;;;;;;6.65;4.20;;;;;;;35.49;30.53;99928.44;5092202;28;20006;-78
2021/06/29 06:41:14;;;;;;;6.70;4.20;;;;;;;34.62;31.13;99916.38;5074976;28;20047;-77
2021/06/29 06:43:43;;;;;;;9.85;4.38;;;;;;;34.90;30.72;99917.28;5092518;28;20127;-77
2021/06/29 06:46:13;;;;;;;7.45;4.55;;;;;;;35.20;30.42;99917.59;5074468;28;20080;-77
2021/06/29 06:48:44;;;;;;;7.80;4.47;;;;;;;35.06;31.05;99915.53;5091885;28;20082;-77
2021/06/29 06:51:13;;;;;;;6.90;4.57;;;;;;;35.91;29.92;99909.13;5095157;28;20122;-76
2021/06/29 06:53:42;;;;;;;7.70;4.40;;;;;;;36.24;29.47;99910.69;5077801;28;20051;-77
2021/06/29 06:56:14;;;;;;;14.10;4.70;;;;;;;36.45;28.85;99894.16;5096003;28;20040;-76
2021/06/29 06:58:42;;;;;;;6.70;4.50;;;;;;;36.25;28.98;99895.69;5096046;28;20399;-77
2021/06/29 07:01:15;;;;;;;7.10;4.38;;;;;;;35.43;30.27;99893.47;5096022;28;20031;-76
2021/06/29 07:03:45;;;;;;;6.90;4.80;;;;;;;34.31;32.46;99892.13;5095745;28;20040;-76
2021/06/29 07:06:14;;;;;;;8.30;4.57;;;;;;;33.59;34.36;99885.53;5096066;28;20050;-76
2021/06/29 07:08:42;;;;;;;8.50;4.22;;;;;;;33.30;34.10;99889.44;5095627;28;20479;-76
2021/06/29 07:11:12;;;;;;;6.88;4.20;;;;;;;33.33;32.46;99886.16;5095926;28;20052;-76
2021/06/29 07:13:41;;;;;;;7.13;4.18;;;;;;;33.31;32.55;99885.56;5095674;28;20399;-77
2021/06/29 07:16:09;;;;;;;15.75;4.68;;;;;;;32.94;33.73;99894.28;5095768;28;20063;-76
2021/06/29 07:18:42;;;;;;;7.82;4.40;;;;;;;33.10;33.38;99892.63;5095824;28;20047;-76
2021/06/29 07:21:11;;;;;;;6.63;3.80;;;;;;;33.04;32.19;99888.13;5096073;28;20094;-76
2021/06/29 07:23:42;;;;;;;8.45;4.40;;;;;;;33.05;32.75;99894.47;5095660;28;20040;-77
2021/06/29 07:26:10;;;;;;;8.00;4.53;;;;;;;32.93;33.06;99892.63;5095619;28;20090;-76
2021/06/29 07:28:39;;;;;;;8.45;5.05;;;;;;;33.12;32.73;99884.97;5095753;28;20040;-76
2021/06/29 07:31:10;;;;;;;6.85;4.35;;;;;;;32.89;33.77;99896.94;5095978;28;20087;-76
2021/06/29 07:33:40;;;;;;;8.73;4.70;;;;;;;32.68;33.64;99894.84;5095534;28;20044;-76
2021/06/29 07:36:11;;;;;;;7.47;4.63;;;;;;;32.77;33.64;99882.31;5096054;28;20051;-76
2021/06/29 07:38:42;;;;;;;7.10;4.55;;;;;;;32.80;33.30;99878.22;5095357;28;20040;-76
2021/06/29 07:41:11;;;;;;;10.15;4.35;;;;;;;32.27;34.56;99884.84;5077662;28;20056;-76
2021/06/29 07:43:40;;;;;;;8.82;5.03;;;;;;;32.22;34.58;99884.72;5095636;28;20044;-76
2021/06/29 07:46:09;;;;;;;9.32;4.88;;;;;;;32.18;34.63;99878.88;5095071;28;20448;-76
2021/06/29 07:48:39;;;;;;;7.75;4.75;;;;;;;32.15;34.33;99884.88;5095279;28;20040;-76
2021/06/29 07:51:09;;;;;;;7.50;4.57;;;;;;;31.94;34.99;99874.44;5095258;28;20036;-76
2021/06/29 07:53:38;;;;;;;10.32;5.30;;;;;;;31.98;34.88;99870.13;5095019;28;20097;-76
2021/06/29 07:56:07;;;;;;;10.93;7.28;;;;;;;32.10;35.32;99870.94;5095011;28;20044;-76
2021/06/29 07:58:35;;;;;;;7.60;4.97;;;;;;;32.36;34.71;99873.22;5094944;28;20040;-76
2021/06/29 08:01:04;;;;;;;7.15;4.40;;;;;;;32.41;33.86;99876.06;5094555;28;20139;-76
2021/06/29 08:03:33;;;;;;;9.20;4.43;;;;;;;32.53;33.95;99875.22;5095030;28;20044;-76
2021/06/29 08:06:02;;;;;;;9.45;4.18;;;;;;;32.43;34.13;99876.69;5094988;28;20067;-76
2021/06/29 08:08:31;;;;;;;6.95;4.22;;;;;;;32.50;34.16;99872.94;5094819;28;20135;-76
2021/06/29 08:11:01;;;;;;;7.72;4.10;;;;;;;32.82;32.81;99873.31;5094281;28;20114;-76
2021/06/29 08:13:29;;;;;;;6.97;4.25;;;;;;;32.81;32.50;99871.59;5094949;28;20452;-76
2021/06/29 08:15:58;;;;;;;8.52;4.10;;;;;;;32.66;32.72;99872.16;5094546;28;20040;-76
2021/06/29 08:18:28;;;;;;;7.25;3.53;;;;;;;32.32;32.53;99873.94;5094399;28;20044;-76
2021/06/29 08:20:56;;;;;;;6.47;3.75;;;;;;;32.62;31.73;99884.75;5094387;28;20405;-76
2021/06/29 08:23:27;;;;;;;7.00;3.83;;;;;;;32.86;30.14;99882.81;5094603;28;20218;-76
2021/06/29 08:25:57;;;;;;;7.95;3.40;;;;;;;32.96;29.92;99872.78;5094391;28;20044;-76
2021/06/29 08:28:26;;;;;;;8.25;3.45;;;;;;;33.03;30.35;99865.19;5094570;28;20077;-76
2021/06/29 08:30:55;;;;;;;6.55;3.65;;;;;;;33.10;30.12;99872.47;5094072;28;20043;-76
2021/06/29 08:33:23;;;;;;;6.80;3.70;;;;;;;33.18;29.71;99872.88;5094721;28;20044;-76
2021/06/29 08:35:52;;;;;;;4.93;3.63;;;;;;;32.86;30.61;99875.34;5094311;28;20044;-76
2021/06/29 08:38:21;;;;;;;8.02;4.28;;;;;;;32.97;30.76;99870.84;5094103;28;20437;-76
2021/06/29 08:40:51;;;;;;;8.55;4.00;;;;;;;33.01;31.00;99872.06;5093924;28;20077;-76
2021/06/29 08:43:20;;;;;;;5.95;3.90;;;;;;;33.11;31.00;99876.94;5094325;28;20057;-76
2021/06/29 08:45:49;;;;;;;6.35;3.25;;;;;;;33.24;30.56;99871.06;5093928;28;20036;-77
2021/06/29 08:48:19;;;;;;;9.45;4.28;;;;;;;33.23;30.57;99869.41;5094333;28;20142;-76
2021/06/29 08:50:47;;;;;;;7.45;3.60;;;;;;;33.34;30.26;99871.25;5093851;28;20090;-77
2021/06/29 08:53:15;;;;;;;8.52;3.95;;;;;;;33.39;29.54;99865.81;5075828;28;20407;-76
2021/06/29 08:55:47;;;;;;;5.85;3.78;;;;;;;33.39;29.38;99868.56;5093893;28;20090;-76
2021/06/29 08:58:23;;;;;;;7.53;3.28;;;;;;;33.46;29.24;99860.97;5094021;28;20060;-76
2021/06/29 09:00:53;;;;;;;9.55;3.67;;;;;;;33.35;30.22;99850.81;5093673;28;20131;-77
2021/06/29 09:03:23;;;;;;;8.57;3.75;;;;;;;33.38;29.88;99855.84;5093816;28;20093;-76
2021/06/29 09:05:53;;;;;;;10.85;3.50;;;;;;;33.43;29.66;99855.94;5093466;28;20044;-76
2021/06/29 09:08:24;;;;;;;10.27;3.90;;;;;;;33.47;29.30;99854.34;5093600;28;20475;-76
2021/06/29 09:11:09;;;;;;;5.65;3.50;;;;;;;33.63;29.38;99849.91;5093426;28;20063;-76
2021/06/29 09:13:41;;;;;;;6.38;3.78;;;;;;;33.76;29.50;99845.94;5074489;28;20469;-76
2021/06/29 09:16:10;;;;;;;5.47;3.10;;;;;;;33.75;29.32;99849.78;5093353;28;20445;-76
2021/06/29 09:18:40;;;;;;;10.40;3.60;;;;;;;33.83;29.61;99847.44;5093331;28;20408;-76
2021/06/29 09:21:12;;;;;;;7.30;3.38;;;;;;;33.63;29.84;99852.66;5093224;28;20123;-76
2021/06/29 09:23:48;;;;;;;5.97;3.63;;;;;;;33.69;29.92;99848.91;5093756;28;20045;-76
2021/06/29 09:26:18;;;;;;;6.18;3.45;;;;;;;33.59;28.97;99845.97;5093610;28;20285;-76
2021/06/29 09:28:53;;;;;;;11.20;4.43;;;;;;;33.67;29.68;99833.63;5093188;28;20131;-76
2021/06/29 09:31:26;;;;;;;5.68;3.72;;;;;;;33.69;29.22;99828.72;5093150;28;20131;-76
2021/06/29 09:33:57;;;;;;;6.93;3.63;;;;;;;33.83;29.50;99836.38;5075292;28;20055;-76
2021/06/29 09:36:27;;;;;;;7.65;3.83;;;;;;;33.92;29.09;99828.50;5093399;28;20048;-76
2021/06/29 09:38:58;;;;;;;7.90;3.63;;;;;;;33.96;28.18;99824.13;5092908;28;20123;-76
2021/06/29 09:41:29;;;;;;;12.25;4.32;;;;;;;33.92;28.57;99820.22;5093230;28;20048;-76
2021/06/29 09:44:05;;;;;;;9.60;3.67;;;;;;;33.85;28.72;99820.34;5093050;28;20036;-77
2021/06/29 09:46:36;;;;;;;5.00;3.53;;;;;;;33.90;28.12;99829.88;5093440;28;20127;-76
2021/06/29 09:49:10;;;;;;;7.28;3.92;;;;;;;33.86;28.29;99823.94;5093008;28;20047;-76
2021/06/29 09:51:50;;;;;;;5.25;3.28;;;;;;;33.97;26.84;99825.81;5093005;28;20055;-76
2021/06/29 09:54:21;;;;;;;;;;;;;;;34.10;27.51;99808.84;5093720;28;20036;-76
2021/06/29 09:56:49;;;;;;;8.15;3.55;;;;;;;34.17;26.67;99802.28;5075474;28;19982;-79
2021/06/29 09:59:24;;;;;;;8.13;3.70;;;;;;;34.28;26.96;99804.06;5093315;28;20492;-76
2021/06/29 10:02:04;;;;;;;6.30;3.78;;;;;;;34.47;27.18;99805.44;5074753;28;20490;-77
2021/06/29 10:04:33;;;;;;;6.93;3.35;;;;;;;34.46;27.22;99795.47;5092817;28;20059;-77
2021/06/29 10:07:13;;;;;;;5.70;3.30;;;;;;;34.53;26.32;99789.69;5092568;28;20457;-77
2021/06/29 10:09:44;;;;;;;7.07;3.42;;;;;;;34.41;26.12;99792.63;5092951;28;20135;-76
2021/06/29 10:12:12;;;;;;;7.00;3.45;;;;;;;34.41;26.63;99787.91;5093096;28;20138;-76
2021/06/29 10:14:42;;;;;;;7.18;3.60;;;;;;;34.58;26.66;99793.38;5092755;28;20075;-76
2021/06/29 10:17:10;;;;;;;7.57;3.50;;;;;;;34.60;25.62;99785.63;5092612;28;20558;-76
2021/06/29 10:19:58;;;;;;;6.07;3.28;;;;;;;34.62;25.72;99783.44;5092817;28;20047;-76
2021/06/29 10:22:31;;;;;;;5.30;3.40;;;;;;;34.61;25.94;99779.00;5092926;28;20036;-76
2021/06/29 10:25:00;;;;;;;6.32;3.50;;;;;;;34.46;26.11;99784.38;5095149;28;20040;-76
2021/06/29 10:27:29;;;;;;;6.10;3.55;;;;;;;34.54;26.27;99769.22;5096554;28;20047;-77
2021/06/29 10:30:00;;;;;;;5.60;3.15;;;;;;;34.62;26.43;99769.59;5096463;28;20047;-77
2021/06/29 10:32:31;;;;;;;6.65;3.60;;;;;;;34.63;25.72;99756.56;5096886;28;20040;-76
2021/06/29 10:35:00;;;;;;;6.97;3.53;;;;;;;34.64;26.06;99764.63;5096498;28;20054;-76
2021/06/29 10:37:29;;;;;;;5.97;3.63;;;;;;;34.69;25.38;99766.63;5096749;28;20521;-76
2021/06/29 10:39:58;;;;;;;5.65;3.60;;;;;;;34.79;25.31;99758.41;5096138;28;20043;-77
2021/06/29 10:42:26;;;;;;;6.20;3.47;;;;;;;34.86;25.35;99758.19;5096724;28;20043;-76
2021/06/29 10:44:54;;;;;;;5.82;3.50;;;;;;;34.79;24.95;99760.34;5096192;28;20090;-77
2021/06/29 10:47:28;;;;;;;5.65;3.45;;;;;;;34.59;25.79;99752.66;5096450;28;20039;-76
2021/06/29 10:49:57;;;;;;;7.90;3.53;;;;;;;34.63;26.34;99757.41;5096233;28;20101;-76
2021/06/29 10:52:38;;;;;;;7.80;3.30;;;;;;;34.82;25.24;99751.47;5096291;28;20046;-76
2021/06/29 10:55:24;;;;;;;8.32;3.90;;;;;;;34.92;24.81;99749.66;5096302;28;20074;-76
2021/06/29 10:57:55;;;;;;;6.68;3.58;;;;;;;35.05;24.80;99742.88;5096464;28;20390;-76
2021/06/29 11:00:28;;;;;;;9.18;3.35;;;;;;;35.12;24.64;99735.13;5096354;28;20453;-76
2021/06/29 11:03:02;;;;;;;6.85;3.45;;;;;;;35.17;24.53;99737.97;5095900;28;20040;-77
2021/06/29 11:05:31;;;;;;;;;;;;;;;35.14;24.59;99746.00;5096603;28;20055;-76
2021/06/29 11:08:11;;;;;;;9.88;3.78;;;;;;;35.14;24.45;99740.44;5096037;28;19920;-76
2021/06/29 11:10:41;;;;;;;7.00;3.72;;;;;;;35.24;24.49;99738.56;5095698;28;20052;-76
2021/06/29 11:13:11;;;;;;;6.53;3.65;;;;;;;35.26;23.97;99725.28;5095867;28;20452;-76
2021/06/29 11:15:46;;;;;;;5.13;3.25;;;;;;;35.22;24.37;99717.75;5095915;28;20052;-76
2021/06/29 11:18:21;;;;;;;7.75;3.90;;;;;;;35.34;24.30;99728.66;5096190;28;20479;-76
2021/06/29 11:20:52;;;;;;;5.18;3.72;;;;;;;35.40;24.00;99722.06;5096066;28;20078;-75
2021/06/29 11:23:30;;;;;;;5.55;3.55;;;;;;;35.47;23.94;99711.56;5095925;28;20040;-77
2021/06/29 11:26:01;;;;;;;5.88;3.65;;;;;;;35.40;23.83;99699.88;5095514;28;20040;-75
2021/06/29 11:28:51;;;;;;;8.95;3.90;;;;;;;35.43;24.21;99704.91;5095604;28;20048;-75
2021/06/29 11:31:29;;;;;;;7.13;3.88;;;;;;;35.34;24.19;99706.47;5096003;28;20123;-77
2021/06/29 11:34:03;;;;;;;7.38;3.95;;;;;;;35.42;24.01;99704.06;5095651;28;20146;-77
2021/06/29 11:36:53;;;;;;;7.40;4.05;;;;;;;35.61;24.00;99707.19;5095301;28;20093;-77
2021/06/29 11:39:35;;;;;;;6.90;3.65;;;;;;;35.69;23.67;99705.84;5095644;28;20065;-76
2021/06/29 11:42:21;;;;;;;8.15;4.03;;;;;;;35.91;23.47;99698.22;5077170;28;20059;-76
2021/06/29 11:44:55;;;;;;;10.85;3.80;;;;;;;36.02;23.10;99696.31;5095507;28;20469;-75
2021/06/29 11:47:24;;;;;;;8.02;4.20;;;;;;;36.08;23.20;99686.88;5095425;28;20076;-77
2021/06/29 11:49:57;;;;;;;7.22;4.10;;;;;;;36.05;22.91;99693.81;5095253;28;20046;-76